createdAt,value
2019-03-03T00:01:39.857Z,95190.07
2019-03-03T00:04:12.406Z,95192.72
2019-03-03T00:06:42.452Z,95189.52
2019-03-03T00:09:12.810Z,95189.55
2019-03-03T00:11:48.337Z,95194.05
2019-03-03T00:14:18.290Z,95203.58
2019-03-03T00:16:48.292Z,95200.65
2019-03-03T00:19:18.499Z,95200.65
2019-03-03T00:21:48.688Z,95203.82
2019-03-03T00:24:18.694Z,95202.77
2019-03-03T00:26:48.578Z,95211.77
2019-03-03T00:29:18.777Z,95208.34
2019-03-03T00:31:48.977Z,95208.59
2019-03-03T00:34:19.348Z,95209.39
2019-03-03T00:37:10.044Z,95217.86
2019-03-03T00:40:05.665Z,95221.02
2019-03-03T00:42:46.802Z,95217.32
2019-03-03T00:45:34.476Z,95222.76
2019-03-03T00:48:17.557Z,95221.67
2019-03-03T00:50:55.041Z,95213.04
2019-03-03T00:53:53.114Z,95223.28
2019-03-03T00:56:31.728Z,95221.37
2019-03-03T00:59:14.337Z,95220.05
2019-03-03T01:01:49.279Z,95226.83
2019-03-03T01:04:41.330Z,95228.27
2019-03-03T01:07:19.013Z,95229.22
2019-03-03T01:09:56.202Z,95225.69
2019-03-03T01:12:38.394Z,95226.19
2019-03-03T01:15:31.671Z,95228.45
2019-03-03T01:18:23.793Z,95225.26
2019-03-03T01:21:00.971Z,95232.47
2019-03-03T01:23:52.786Z,95227.75
2019-03-03T01:26:23.003Z,95233.20
2019-03-03T01:28:53.161Z,95235.59
2019-03-03T01:31:23.234Z,95231.08
2019-03-03T01:33:53.572Z,95231.37
2019-03-03T01:36:24.170Z,95235.66
2019-03-03T01:38:54.168Z,95233.45
2019-03-03T01:41:24.160Z,95232.98
2019-03-03T01:43:54.403Z,95233.00
2019-03-03T01:46:24.616Z,95235.17
2019-03-03T01:48:54.633Z,95239.28
2019-03-03T01:51:24.650Z,95239.36
2019-03-03T01:53:54.858Z,95242.36
2019-03-03T01:56:25.047Z,95239.02
2019-03-03T01:58:55.047Z,95246.06
2019-03-03T02:01:25.465Z,95234.49
2019-03-03T02:03:55.479Z,95240.98
2019-03-03T02:06:25.621Z,95238.13
2019-03-03T02:08:55.793Z,95230.44
2019-03-03T02:11:26.093Z,95228.96
2019-03-03T02:13:56.091Z,95228.49
2019-03-03T02:16:26.023Z,95226.02
2019-03-03T02:18:56.236Z,95223.16
2019-03-03T02:21:26.529Z,95231.13
2019-03-03T02:23:56.558Z,95231.88
2019-03-03T02:26:26.660Z,95228.91
2019-03-03T02:28:56.968Z,95234.78
2019-03-03T02:31:27.192Z,95240.22
2019-03-03T02:33:57.366Z,95245.39
2019-03-03T02:36:27.512Z,95246.50
2019-03-03T02:38:57.725Z,95245.23
2019-03-03T02:41:27.860Z,95244.09
2019-03-03T02:43:58.063Z,95247.13
2019-03-03T02:46:28.290Z,95247.02
2019-03-03T02:48:58.315Z,95248.02
2019-03-03T02:51:28.332Z,95253.86
2019-03-03T02:53:58.577Z,95256.83
2019-03-03T02:56:28.792Z,95263.62
2019-03-03T02:58:58.924Z,95271.02
2019-03-03T03:01:33.151Z,95271.58
2019-03-03T03:04:03.485Z,95274.41
2019-03-03T03:06:58.444Z,95284.63
2019-03-03T03:09:50.289Z,95285.50
2019-03-03T03:12:28.711Z,95294.39
2019-03-03T03:15:15.120Z,95291.50
2019-03-03T03:18:16.289Z,95291.59
2019-03-03T03:21:03.620Z,95298.52
2019-03-03T03:23:58.492Z,95306.02
2019-03-03T03:26:50.239Z,95304.37
2019-03-03T03:29:44.867Z,95306.71
2019-03-03T03:32:26.418Z,95305.94
2019-03-03T03:35:19.128Z,95297.15
2019-03-03T03:38:04.214Z,95298.47
2019-03-03T03:40:56.287Z,95292.83
2019-03-03T03:44:03.772Z,95290.80
2019-03-03T03:46:52.814Z,95302.09
2019-03-03T03:49:33.325Z,95305.59
2019-03-03T03:52:29.023Z,95300.61
2019-03-03T03:55:15.637Z,95301.77
2019-03-03T03:58:02.231Z,95291.17
2019-03-03T04:01:03.384Z,95297.66
2019-03-03T04:03:51.001Z,95298.78
2019-03-03T04:06:29.094Z,95302.54
2019-03-03T04:09:30.455Z,95295.09
2019-03-03T04:12:19.502Z,95289.84
2019-03-03T04:15:17.571Z,95301.97
2019-03-03T04:18:03.752Z,95305.34
2019-03-03T04:21:04.823Z,95306.10
2019-03-03T04:23:53.899Z,95306.53
2019-03-03T04:26:32.931Z,95312.55
2019-03-03T04:29:25.174Z,95305.17
2019-03-03T04:32:17.008Z,95309.38
2019-03-03T04:35:14.164Z,95311.86
2019-03-03T04:38:15.343Z,95311.31
2019-03-03T04:41:03.278Z,95316.98
2019-03-03T04:43:51.242Z,95323.58
2019-03-03T04:46:46.095Z,95322.95
2019-03-03T04:49:44.145Z,95327.12
2019-03-03T04:52:22.546Z,95324.50
2019-03-03T04:55:20.527Z,95324.69
2019-03-03T04:58:00.283Z,95330.09
2019-03-03T05:00:56.602Z,95329.74
2019-03-03T05:03:50.582Z,95338.19
2019-03-03T05:06:30.427Z,95336.14
2019-03-03T05:09:15.073Z,95337.59
2019-03-03T05:12:26.993Z,95337.27
2019-03-03T05:15:01.984Z,95347.34
2019-03-03T05:17:54.059Z,95347.14
2019-03-03T05:20:24.386Z,95350.52
2019-03-03T05:22:54.615Z,95348.03
2019-03-03T05:25:24.695Z,95358.00
2019-03-03T05:27:54.716Z,95361.58
2019-03-03T05:30:24.969Z,95365.52
2019-03-03T05:32:55.226Z,95368.01
2019-03-03T05:35:25.282Z,95384.92
2019-03-03T05:37:55.607Z,95372.52
2019-03-03T05:40:26.034Z,95382.11
2019-03-03T05:42:55.933Z,95384.24
2019-03-03T05:45:26.239Z,95382.25
2019-03-03T05:47:56.449Z,95386.96
2019-03-03T05:50:26.349Z,95381.65
2019-03-03T05:52:56.265Z,95389.20
2019-03-03T05:55:26.486Z,95391.15
2019-03-03T05:57:56.694Z,95387.38
2019-03-03T06:00:26.812Z,95392.15
2019-03-03T06:02:56.819Z,95391.38
2019-03-03T06:05:27.010Z,95388.28
2019-03-03T06:07:57.221Z,95383.71
2019-03-03T06:10:27.120Z,95385.48
2019-03-03T06:12:57.228Z,95390.55
2019-03-03T06:15:27.543Z,95393.35
2019-03-03T06:17:57.521Z,95394.57
2019-03-03T06:20:27.927Z,95393.57
2019-03-03T06:22:58.147Z,95395.06
2019-03-03T06:25:28.268Z,95401.54
2019-03-03T06:27:58.386Z,95401.56
2019-03-03T06:30:28.599Z,95396.27
2019-03-03T06:32:58.834Z,95395.90
2019-03-03T06:35:28.844Z,95399.50
2019-03-03T06:37:58.852Z,95396.30
2019-03-03T06:40:29.073Z,95399.35
2019-03-03T06:42:59.329Z,95401.45
2019-03-03T06:45:29.485Z,95401.72
2019-03-03T06:47:59.415Z,95411.66
2019-03-03T06:50:29.673Z,95410.87
2019-03-03T06:52:59.959Z,95409.58
2019-03-03T06:55:29.917Z,95407.38
2019-03-03T06:58:00.114Z,95407.84
2019-03-03T07:00:30.150Z,95410.63
2019-03-03T07:03:00.343Z,95402.75
2019-03-03T07:05:30.593Z,95411.22
2019-03-03T07:08:00.886Z,95406.99
2019-03-03T07:10:31.063Z,95397.05
2019-03-03T07:13:01.125Z,95401.97
2019-03-03T07:15:37.401Z,95408.38
2019-03-03T07:18:17.643Z,95405.33
2019-03-03T07:21:09.773Z,95402.07
2019-03-03T07:23:39.857Z,95374.34
2019-03-03T07:26:10.119Z,95405.66
2019-03-03T07:28:40.359Z,95410.33
2019-03-03T07:31:10.510Z,95408.66
2019-03-03T07:33:43.898Z,95409.58
2019-03-03T07:36:14.325Z,95408.55
2019-03-03T07:38:44.474Z,95400.87
2019-03-03T07:41:15.015Z,95397.87
2019-03-03T07:43:45.256Z,95396.82
2019-03-03T07:46:15.485Z,95391.31
2019-03-03T07:48:45.618Z,95390.73
2019-03-03T07:51:15.834Z,95388.63
2019-03-03T07:53:46.049Z,95390.92
2019-03-03T07:56:15.950Z,95391.45
2019-03-03T07:58:47.864Z,95388.78
2019-03-03T08:01:18.054Z,95387.80
2019-03-03T08:03:48.269Z,95380.84
2019-03-03T08:06:18.287Z,95380.17
2019-03-03T08:08:48.268Z,95378.78
2019-03-03T08:11:18.473Z,95386.92
2019-03-03T08:13:48.656Z,95384.55
2019-03-03T08:16:18.652Z,95376.77
2019-03-03T08:18:48.972Z,95373.20
2019-03-03T08:21:18.890Z,95378.41
2019-03-03T08:23:48.801Z,95372.72
2019-03-03T08:26:19.037Z,95373.01
2019-03-03T08:28:49.303Z,95382.13
2019-03-03T08:31:19.345Z,95375.26
2019-03-03T08:33:49.261Z,95373.73
2019-03-03T08:36:19.478Z,95371.56
2019-03-03T08:38:50.177Z,95371.78
2019-03-03T08:41:20.188Z,95366.80
2019-03-03T08:44:06.997Z,95373.05
2019-03-03T08:47:14.573Z,95366.37
2019-03-03T08:50:03.617Z,95371.11
2019-03-03T08:52:42.758Z,95365.77
2019-03-03T08:55:30.999Z,95367.85
2019-03-03T08:58:21.240Z,95371.06
2019-03-03T09:00:56.131Z,95363.53
2019-03-03T09:03:47.970Z,95360.16
2019-03-03T09:06:40.121Z,95359.11
2019-03-03T09:09:35.422Z,95352.76
2019-03-03T09:12:10.165Z,95350.55
2019-03-03T09:15:01.143Z,95348.72
2019-03-03T09:17:49.807Z,95351.67
2019-03-03T09:20:44.890Z,95352.13
2019-03-03T09:23:25.871Z,95356.84
2019-03-03T09:26:24.263Z,95347.08
2019-03-03T09:29:04.514Z,95356.93
2019-03-03T09:31:52.356Z,95349.20
2019-03-03T09:34:59.353Z,95349.78
2019-03-03T09:37:49.157Z,95361.16
2019-03-03T09:40:37.002Z,95360.45
2019-03-03T09:43:16.055Z,95359.48
2019-03-03T09:46:03.705Z,95355.36
2019-03-03T09:48:51.450Z,95358.04
2019-03-03T09:51:46.556Z,95354.34
2019-03-03T09:54:31.256Z,95364.90
2019-03-03T09:57:11.446Z,95368.75
2019-03-03T09:59:55.046Z,95361.92
2019-03-03T10:02:49.686Z,95354.64
2019-03-03T10:05:28.619Z,95358.38
2019-03-03T10:08:17.854Z,95360.09
2019-03-03T10:11:09.865Z,95362.93
2019-03-03T10:14:03.990Z,95362.72
2019-03-03T10:16:40.453Z,95352.98
2019-03-03T10:19:25.719Z,95354.27
2019-03-03T10:22:14.705Z,95350.84
2019-03-03T10:24:57.768Z,95348.12
2019-03-03T10:27:45.775Z,95350.75
2019-03-03T10:30:46.913Z,95349.98
2019-03-03T10:33:48.147Z,95346.28
2019-03-03T10:36:42.968Z,95339.36
2019-03-03T10:39:31.297Z,95338.34
2019-03-03T10:42:27.957Z,95344.48
2019-03-03T10:45:29.232Z,95333.15
2019-03-03T10:48:07.499Z,95332.48
2019-03-03T10:50:55.119Z,95332.11
2019-03-03T10:53:52.996Z,95328.77
2019-03-03T10:56:34.378Z,95320.01
2019-03-03T10:59:13.519Z,95321.17
2019-03-03T11:01:56.458Z,95316.81
2019-03-03T11:04:44.156Z,95319.32
2019-03-03T11:07:39.102Z,95309.49
2019-03-03T11:10:28.909Z,95315.73
2019-03-03T11:13:17.993Z,95317.17
2019-03-03T11:16:09.800Z,95310.65
2019-03-03T11:18:57.937Z,95310.90
2019-03-03T11:21:50.073Z,95301.93
2019-03-03T11:24:37.460Z,95299.39
2019-03-03T11:27:20.358Z,95303.35
2019-03-03T11:30:04.791Z,95298.45
2019-03-03T11:32:54.900Z,95296.09
2019-03-03T11:35:46.811Z,95293.72
2019-03-03T11:38:35.748Z,95293.06
2019-03-03T11:41:32.251Z,95288.22
2019-03-03T11:44:27.713Z,95273.30
2019-03-03T11:47:08.073Z,95268.03
2019-03-03T11:49:53.453Z,95260.39
2019-03-03T11:52:31.573Z,95270.97
2019-03-03T11:55:13.135Z,95264.03
2019-03-03T11:57:52.957Z,95256.09
2019-03-03T12:00:36.837Z,95257.73
2019-03-03T12:03:34.804Z,95257.09
2019-03-03T12:06:29.774Z,95254.05
2019-03-03T12:09:21.591Z,95253.31
2019-03-03T12:12:10.609Z,95250.13
2019-03-03T12:15:14.558Z,95249.73
2019-03-03T12:17:55.887Z,95247.97
2019-03-03T12:20:33.891Z,95249.41
2019-03-03T12:23:25.400Z,95237.48
2019-03-03T12:26:20.157Z,95244.58
2019-03-03T12:29:14.292Z,95245.95
2019-03-03T12:32:15.713Z,95246.28
2019-03-03T12:34:52.315Z,95238.07
2019-03-03T12:37:36.966Z,95242.65
2019-03-03T12:40:37.360Z,95237.30
2019-03-03T12:43:16.939Z,95238.35
2019-03-03T12:46:05.875Z,95233.89
2019-03-03T12:48:54.840Z,95227.22
2019-03-03T12:51:56.021Z,95222.80
2019-03-03T12:54:39.948Z,95215.84
2019-03-03T12:57:27.410Z,95224.73
2019-03-03T13:00:22.449Z,95222.30
2019-03-03T13:03:14.326Z,95220.16
2019-03-03T13:06:09.284Z,95218.41
2019-03-03T13:09:13.212Z,95217.16
2019-03-03T13:11:51.431Z,95219.39
2019-03-03T13:14:32.310Z,95220.00
2019-03-03T13:17:27.822Z,95217.26
2019-03-03T13:20:12.573Z,95213.89
2019-03-03T13:22:54.168Z,95218.91
2019-03-03T13:25:36.469Z,95218.59
2019-03-03T13:28:21.607Z,95214.55
2019-03-03T13:31:10.617Z,95220.91
2019-03-03T13:33:58.386Z,95226.20
2019-03-03T13:36:50.123Z,95220.41
2019-03-03T13:39:57.642Z,95227.38
2019-03-03T13:42:43.709Z,95227.70
2019-03-03T13:45:15.234Z,95223.80
2019-03-03T13:47:45.249Z,95227.80
2019-03-03T13:50:17.161Z,95229.75
2019-03-03T13:52:47.347Z,95235.21
2019-03-03T13:55:17.587Z,95237.72
2019-03-03T13:57:47.692Z,95232.77
2019-03-03T14:00:21.182Z,95245.61
2019-03-03T14:02:51.955Z,95240.05
2019-03-03T14:05:23.829Z,95243.58
2019-03-03T14:07:53.948Z,95241.88
2019-03-03T14:10:24.160Z,95240.19
2019-03-03T14:12:54.175Z,95248.72
2019-03-03T14:15:24.380Z,95241.30
2019-03-03T14:17:54.576Z,95245.28
2019-03-03T14:20:25.235Z,95254.56
2019-03-03T14:22:55.887Z,95246.00
2019-03-03T14:25:26.194Z,95259.47
2019-03-03T14:27:56.545Z,95259.22
2019-03-03T14:30:27.326Z,95259.42
2019-03-03T14:32:57.484Z,95260.45
2019-03-03T14:35:28.879Z,95258.76
2019-03-03T14:37:59.150Z,95261.69
2019-03-03T14:40:29.529Z,95263.91
2019-03-03T14:42:59.803Z,95260.16
2019-03-03T14:45:30.415Z,95266.09
2019-03-03T14:48:00.631Z,95268.61
2019-03-03T14:50:30.766Z,95271.42
2019-03-03T14:53:00.980Z,95267.98
2019-03-03T14:55:31.185Z,95263.25
2019-03-03T14:58:01.325Z,95266.13
2019-03-03T15:00:34.201Z,95267.03
2019-03-03T15:03:06.403Z,95272.18
2019-03-03T15:05:36.833Z,95268.88
2019-03-03T15:08:06.967Z,95275.30
2019-03-03T15:10:37.205Z,95276.98
2019-03-03T15:13:07.415Z,95280.55
2019-03-03T15:15:37.652Z,95279.19
2019-03-03T15:18:07.778Z,95279.36
2019-03-03T15:20:37.998Z,95275.49
2019-03-03T15:23:08.303Z,95282.95
2019-03-03T15:25:38.428Z,95280.33
2019-03-03T15:28:08.571Z,95286.58
2019-03-03T15:30:38.779Z,95289.93
2019-03-03T15:33:09.139Z,95292.78
2019-03-03T15:35:39.397Z,95290.83
2019-03-03T15:38:09.620Z,95295.88
2019-03-03T15:40:39.746Z,95293.08
2019-03-03T15:43:10.088Z,95298.25
2019-03-03T15:45:40.442Z,95291.73
2019-03-03T15:48:10.869Z,95301.53
2019-03-03T15:50:41.239Z,95303.28
2019-03-03T15:53:11.258Z,95305.05
2019-03-03T15:55:41.480Z,95306.73
2019-03-03T15:58:11.698Z,95311.34
2019-03-03T16:00:41.997Z,95316.52
2019-03-03T16:03:12.220Z,95319.20
2019-03-03T16:05:42.472Z,95321.94
2019-03-03T16:08:12.700Z,95325.00
2019-03-03T16:10:42.727Z,95328.86
2019-03-03T16:13:12.903Z,95336.28
2019-03-03T16:15:43.165Z,95346.38
2019-03-03T16:18:13.379Z,95343.20
2019-03-03T16:20:43.808Z,95352.43
2019-03-03T16:23:14.092Z,95351.72
2019-03-03T16:25:44.384Z,95353.17
2019-03-03T16:28:14.614Z,95356.36
2019-03-03T16:30:47.832Z,95355.72
2019-03-03T16:33:20.869Z,95358.64
2019-03-03T16:35:49.868Z,95366.45
2019-03-03T16:38:25.643Z,95370.58
2019-03-03T16:40:55.823Z,95371.39
2019-03-03T16:43:26.020Z,95368.91
2019-03-03T16:45:56.291Z,95368.85
2019-03-03T16:48:27.196Z,95377.23
2019-03-03T16:50:57.267Z,95374.81
2019-03-03T16:53:27.514Z,95373.09
2019-03-03T16:55:57.672Z,95375.65
2019-03-03T16:58:27.743Z,95379.72
2019-03-03T17:00:58.000Z,95382.94
2019-03-03T17:03:28.234Z,95401.98
2019-03-03T17:05:58.418Z,95398.84
2019-03-03T17:08:28.646Z,95400.95
2019-03-03T17:10:58.943Z,95407.61
2019-03-03T17:13:29.163Z,95408.97
2019-03-03T17:15:59.216Z,95414.21
2019-03-03T17:18:30.605Z,95413.33
2019-03-03T17:21:03.869Z,95417.82
2019-03-03T17:23:34.176Z,95419.61
2019-03-03T17:26:04.371Z,95427.86
2019-03-03T17:28:34.504Z,95424.70
2019-03-03T17:31:04.699Z,95433.80
2019-03-03T17:33:34.907Z,95439.66
2019-03-03T17:36:05.182Z,95446.39
2019-03-03T17:38:35.384Z,95447.73
2019-03-03T17:41:05.540Z,95451.98
2019-03-03T17:43:38.771Z,95455.83
2019-03-03T17:46:09.183Z,95451.50
2019-03-03T17:48:39.407Z,95445.01
2019-03-03T17:51:09.675Z,95449.22
2019-03-03T17:53:39.825Z,95450.75
2019-03-03T17:56:10.177Z,95450.01
2019-03-03T17:58:40.374Z,95447.64
2019-03-03T18:01:10.465Z,95455.89
2019-03-03T18:03:40.686Z,95454.80
2019-03-03T18:06:10.914Z,95455.02
2019-03-03T18:08:41.142Z,95457.13
2019-03-03T18:11:11.286Z,95456.66
2019-03-03T18:13:41.471Z,95465.53
2019-03-03T18:16:11.593Z,95462.56
2019-03-03T18:18:41.729Z,95462.11
2019-03-03T18:21:11.956Z,95469.85
2019-03-03T18:23:42.183Z,95464.91
2019-03-03T18:26:12.290Z,95466.94
2019-03-03T18:28:42.331Z,95472.50
2019-03-03T18:31:12.539Z,95468.07
2019-03-03T18:33:42.828Z,95473.98
2019-03-03T18:36:14.550Z,95476.98
2019-03-03T18:38:44.517Z,95478.06
2019-03-03T18:41:14.719Z,95478.67
2019-03-03T18:43:45.170Z,95490.38
2019-03-03T18:46:15.407Z,95483.02
2019-03-03T18:48:45.546Z,95491.94
2019-03-03T18:51:15.952Z,95489.61
2019-03-03T18:53:46.000Z,95487.95
2019-03-03T18:56:16.218Z,95499.25
2019-03-03T18:58:46.498Z,95491.41
2019-03-03T19:01:16.665Z,95482.92
2019-03-03T19:03:46.784Z,95488.59
2019-03-03T19:06:17.007Z,95494.20
2019-03-03T19:08:47.261Z,95487.08
2019-03-03T19:11:17.275Z,95490.05
2019-03-03T19:13:47.300Z,95494.25
2019-03-03T19:16:17.510Z,95502.07
2019-03-03T19:18:47.726Z,95496.84
2019-03-03T19:21:17.847Z,95498.61
2019-03-03T19:23:47.965Z,95510.29
2019-03-03T19:26:19.030Z,95505.37
2019-03-03T19:28:49.474Z,95502.68
2019-03-03T19:31:20.975Z,95500.66
2019-03-03T19:33:53.953Z,95504.63
2019-03-03T19:36:24.088Z,95500.61
2019-03-03T19:38:54.105Z,95502.25
2019-03-03T19:41:46.353Z,95499.83
2019-03-03T19:44:16.848Z,95502.57
2019-03-03T19:46:47.222Z,95506.51
2019-03-03T19:49:17.357Z,95508.33
2019-03-03T19:51:47.586Z,95513.78
2019-03-03T19:54:17.825Z,95509.42
2019-03-03T19:56:47.829Z,95511.37
2019-03-03T19:59:17.961Z,95506.84
2019-03-03T20:01:48.166Z,95509.06
2019-03-03T20:04:18.377Z,95509.13
2019-03-03T20:06:48.416Z,95507.84
2019-03-03T20:09:19.724Z,95512.61
2019-03-03T20:11:49.946Z,95515.59
2019-03-03T20:14:20.173Z,95510.06
2019-03-03T20:16:50.477Z,95506.91
2019-03-03T20:19:20.715Z,95503.73
2019-03-03T20:21:50.809Z,95495.15
2019-03-03T20:24:21.106Z,95489.84
2019-03-03T20:26:51.326Z,95490.28
2019-03-03T20:29:21.548Z,95485.02
2019-03-03T20:31:52.111Z,95489.16
2019-03-03T20:34:22.249Z,95489.85
2019-03-03T20:36:52.475Z,95496.84
2019-03-03T20:39:22.761Z,95503.51
2019-03-03T20:41:52.838Z,95509.66
2019-03-03T20:44:22.924Z,95504.60
2019-03-03T20:46:53.414Z,95509.14
2019-03-03T20:49:23.676Z,95512.20
2019-03-03T20:51:53.593Z,95510.85
2019-03-03T20:54:23.830Z,95504.70
2019-03-03T20:56:53.847Z,95505.86
2019-03-03T20:59:24.409Z,95504.77
2019-03-03T21:01:54.638Z,95500.63
2019-03-03T21:04:24.901Z,95496.47
2019-03-03T21:06:55.287Z,95498.73
2019-03-03T21:09:26.168Z,95494.52
2019-03-03T21:11:56.379Z,95487.78
2019-03-03T21:14:26.652Z,95489.96
2019-03-03T21:16:56.673Z,95499.98
2019-03-03T21:19:26.732Z,95496.70
2019-03-03T21:21:56.952Z,95495.31
2019-03-03T21:24:27.241Z,95497.59
2019-03-03T21:26:57.299Z,95495.19
2019-03-03T21:29:27.316Z,95498.91
2019-03-03T21:31:57.524Z,95500.96
2019-03-03T21:34:27.721Z,95490.09
2019-03-03T21:36:57.630Z,95482.99
2019-03-03T21:39:27.666Z,95484.66
2019-03-03T21:41:58.791Z,95491.95
2019-03-03T21:44:29.366Z,95491.64
2019-03-03T21:46:59.858Z,95489.34
2019-03-03T21:49:30.253Z,95487.32
2019-03-03T21:52:00.608Z,95486.91
2019-03-03T21:54:30.887Z,95487.83
2019-03-03T21:57:00.902Z,95495.32
2019-03-03T21:59:31.542Z,95488.34
2019-03-03T22:02:01.746Z,95488.73
2019-03-03T22:04:31.955Z,95489.50
2019-03-03T22:07:01.861Z,95485.69
2019-03-03T22:09:31.785Z,95481.81
2019-03-03T22:12:01.981Z,95479.02
2019-03-03T22:14:32.025Z,95478.92
2019-03-03T22:17:02.342Z,95475.78
2019-03-03T22:19:32.542Z,95480.43
2019-03-03T22:22:03.073Z,95473.61
2019-03-03T22:24:33.302Z,95476.82
2019-03-03T22:27:03.514Z,95476.05
2019-03-03T22:29:33.704Z,95470.16
2019-03-03T22:32:03.737Z,95468.57
2019-03-03T22:34:33.689Z,95474.69
2019-03-03T22:37:03.889Z,95472.22
2019-03-03T22:39:34.073Z,95474.78
2019-03-03T22:42:04.000Z,95471.28
2019-03-03T22:44:33.906Z,95475.21
2019-03-03T22:47:04.405Z,95478.12
2019-03-03T22:49:34.748Z,95483.33
2019-03-03T22:52:04.870Z,95482.06
2019-03-03T22:54:35.181Z,95476.06
2019-03-03T22:57:05.293Z,95485.05
2019-03-03T22:59:35.208Z,95482.83
2019-03-03T23:02:05.396Z,95482.66
2019-03-03T23:05:15.997Z,95486.24
2019-03-03T23:08:12.699Z,95492.55
2019-03-03T23:11:01.897Z,95482.13
2019-03-03T23:13:47.205Z,95481.70
2019-03-03T23:16:50.313Z,95473.64
2019-03-03T23:19:51.195Z,95475.16
2019-03-03T23:22:58.941Z,95467.94
2019-03-03T23:25:58.001Z,95477.22
2019-03-03T23:28:28.246Z,95481.89
2019-03-03T23:30:59.017Z,95477.14
2019-03-03T23:33:29.138Z,95482.41
2019-03-03T23:35:59.316Z,95484.94
2019-03-03T23:38:29.322Z,95478.45
2019-03-03T23:41:00.144Z,95483.59
2019-03-03T23:43:30.327Z,95477.07
2019-03-03T23:46:00.551Z,95476.24
2019-03-03T23:48:30.562Z,95477.41
2019-03-03T23:51:00.747Z,95482.47
2019-03-03T23:53:30.994Z,95481.06
2019-03-03T23:56:00.892Z,95482.67
2019-03-03T23:58:30.902Z,95475.03
